Terminal Aerodrome Forecast
Issued by NWS Charleston, WV

Current Version | Previous Version | Graphics & Text | Print | Product List | Glossary On
Versions: 1 2 3 4 5 6 7 8 9 10 11 12 13 14 15 16 17 18 19 20 21 22 23 24
000
FTUS41 KRLX 290800 AAA
TAFCRW
TAF AMD
KCRW 290835Z 2909/3006 00000KT P6SM SKC
     FM291800 21006KT P6SM SCT200
     FM300300 20007KT P6SM -SHRA BKN070
     FM300500 22008KT 6SM -SHRA BR BKN020=

USA.gov is the U.S. government's official web portal to all federal, state and local government web resources and services.